Portada
METAR-TAF:

METAR-TAF

Aeroports :

Kassel, Alemanya

latitud: 51-24N, longitud: 009-23E, altitud: 277 m

Observació

L'informe es va fer fa 3 hores i 9 minuts, a les 19:20 UTC
Vent 9 kt del Oest
Temperatura 2°C
Humitat 93%
Pressió 1002 hPa
Visibilitat: 8000 m
Núvols disperses a una alçada de 600 ft
Cel ennuvolat a una alçada de 1500 ft
Cel cobert a una alçada de 1900 ft
pluja, neu

METAR: EDVK 261920Z 28009KT 8000 -RASN SCT006 BKN015 OVC019 02/01 Q1002

Hora: 23:29 (22:29 UTC)

Pronòstic

L'informe es va fer fa 2 hores i 29 minuts, a les 20:00 UTC
Pronòstic vàlid del 26 a les 21 UTC al 27 a les 03 UTC
Vent 10 kt del Oest
Visibilitat 10 km o més
Cel ennuvolat a una alçada de 1500 ft
Probabilitat 30% :
Temporalment
l' 26 a les 21 UTC al 26 a les 24 UTC
Vent 15 kt del Oest amb ràfegues de 25 kt
Visibilitat: 1200 m
Cel ennuvolat a una alçada de 400 ft, Cumulonimbus.
xàfecs de neu

TAF: EDVK 262000Z 2621/2703 27010KT 9999 BKN015 PROB30 TEMPO 2621/2624 28015G25KT 1200 SHSN BKN004CB

Observacions i pronòstics meteorològics de més de 4000 aeroports (METAR i TAF).

Les estacions disponibles són els punts grocs i vermells al mapa.

Posi el ratolí al punt desitjat per veure el nom de l'estació.

Feu clic per veure les observacions i els pronòstics meteorològics.

Per canviar el mapa: feu clic els botons verds amb una creu de color negre per apropar; al botó verd amb un guió per allunyar la imatge; o en les fletxes verdes per a mapes adjacents.


METAR-TAF: